Latest Weather Observations for Neptune Island

IDS60801

Issued at 7:31 am CST Tuesday 27 September 2016 (issued every 30 minutes, with the page automatically refreshed every 10 minutes)

About weather observations | Map of weather stations | Latest weather observations for SA | Other Formats
Station Details ID: 018115 Name: NEPTUNE ISLAND Lat: -35.34 Lon: 136.12 Height: 32.0 m
Data from the previous 72 hours. | See also: Recent months at Neptune Island
Date/Time
CST
Temp
°C
App
Temp
°C
Dew
Point
°C
Rel
Hum
%
Delta-T
°C
Wind Press
QNH
hPa
Press
MSL
hPa
Rain since
9am
mm
Dir  Spd
km/h
Gust
km/h
Spd
kts
Gust
kts
27/07:30am 13.0 6.2 6.8 66 3.0 WNW 32 37 17 20 1014.3 1014.3 0.0
27/07:00am 12.6 5.5 6.2 65 3.0 WNW 33 39 18 21 1013.9 1013.9 0.0
27/06:30am 12.4 5.3 6.2 66 2.9 WNW 33 39 18 21 1013.8 1013.8 0.0
27/06:00am 12.3 4.7 5.9 65 3.0 WNW 35 43 19 23 1013.6 1013.6 0.0
27/05:30am 12.4 5.0 6.7 68 2.7 W 35 41 19 22 1013.1 1013.1 0.0
27/05:00am 12.4 4.8 7.5 72 2.4 W 37 44 20 24 1013.2 1013.2 0.0
27/04:30am 12.2 5.4 7.1 71 2.5 WNW 32 37 17 20 1013.0 1013.0 0.0
27/04:00am 12.3 5.4 7.4 72 2.4 W 33 39 18 21 1013.1 1013.1 0.0
27/03:30am 12.2 5.2 6.9 70 2.5 W 33 39 18 21 1012.9 1012.9 0.0
27/03:00am 12.3 5.0 7.0 70 2.5 W 35 43 19 23 1013.0 1013.0 0.0
27/02:30am 12.2 5.4 6.7 69 2.6 W 32 41 17 22 1013.3 1013.3 0.0
27/02:00am 12.2 5.8 6.9 70 2.5 W 30 35 16 19 1013.5 1013.5 0.0
27/01:30am 12.1 5.2 6.4 68 2.7 W 32 39 17 21 1013.8 1013.8 0.0
27/01:00am 12.0 5.5 6.7 70 2.5 W 30 35 16 19 1014.0 1014.0 0.0
27/12:30am 12.1 6.1 7.0 71 2.4 W 28 33 15 18 1014.2 1014.2 0.0
27/12:00am 12.1 5.1 6.2 67 2.8 W 32 35 17 19 1014.5 1014.5 0.0
 
Date/Time
CST
Temp
°C
App
Temp
°C
Dew
Point
°C
Rel
Hum
%
Delta-T
°C
Wind Press
QNH
hPa
Press
MSL
hPa
Rain since
9am
mm
Dir  Spd
km/h
Gust
km/h
Spd
kts
Gust
kts
26/11:30pm 12.0 6.1 7.3 73 2.3 W 28 33 15 18 1014.5 1014.5 0.0
26/11:00pm 11.8 4.4 6.7 71 2.4 W 35 44 19 24 1014.7 1014.7 0.0
26/10:30pm 12.4 5.4 6.0 65 3.0 W 32 39 17 21 1014.7 1014.7 0.0
26/10:00pm 12.5 5.5 6.8 68 2.7 WSW 33 39 18 21 1014.8 1014.8 0.0
26/09:30pm 12.3 5.8 6.4 67 2.8 W 30 39 16 21 1014.8 1014.8 0.0
26/09:00pm 12.4 4.6 4.9 60 3.4 W 35 41 19 22 1014.5 1014.5 0.0
26/08:30pm 12.4 4.6 4.9 60 3.4 W 35 43 19 23 1014.4 1014.4 0.0
26/08:00pm 12.4 4.4 5.8 64 3.1 W 37 43 20 23 1014.2 1014.2 0.0
26/07:30pm 12.5 4.3 6.5 67 2.9 W 39 46 21 25 1014.0 1014.0 0.0
26/07:00pm 12.1 4.7 6.6 69 2.6 WSW 35 43 19 23 1013.6 1013.6 0.0
26/06:30pm 12.6 4.7 6.2 65 3.0 W 37 44 20 24 1013.3 1013.3 0.0
26/06:00pm 12.7 3.7 6.3 65 3.0 WSW 43 52 23 28 1013.0 1013.0 0.0
26/05:30pm 13.0 3.9 7.0 67 2.9 WSW 44 54 24 29 1012.6 1012.6 0.0
26/05:00pm 13.5 4.8 7.5 67 2.9 WSW 43 52 23 28 1012.2 1012.2 0.0
26/04:30pm 13.8 5.1 7.6 66 3.1 WSW 43 52 23 28 1011.8 1011.8 0.0
26/04:00pm 13.5 4.3 7.9 69 2.8 WSW 46 54 25 29 1011.7 1011.7 0.0
26/03:30pm 14.0 4.1 6.6 61 3.6 WSW 48 56 26 30 1011.4 1011.4 0.0
26/03:00pm 14.0 4.6 7.1 63 3.4 WSW 46 54 25 29 1011.2 1011.2 0.0
26/02:30pm 13.7 4.6 7.0 64 3.3 WSW 44 52 24 28 1011.3 1011.3 0.0
26/02:00pm 13.9 4.5 7.2 64 3.3 W 46 57 25 31 1011.4 1011.4 0.0
26/01:30pm 13.3 2.7 7.1 66 3.0 WSW 52 57 28 31 1011.2 1011.2 0.0
26/01:00pm 13.9 4.1 7.2 64 3.3 W 48 59 26 32 1011.3 1011.3 0.0
26/12:30pm 13.4 3.1 6.5 63 3.3 W 50 59 27 32 1011.0 1011.0 0.0
26/12:00pm 13.7 3.4 6.6 62 3.4 W 50 61 27 33 1011.0 1011.0 0.0
26/11:30am 13.8 2.4 6.7 62 3.4 W 56 69 30 37 1010.9 1010.9 0.0
26/11:00am 13.6 2.2 6.5 62 3.4 W 56 65 30 35 1011.0 1011.0 0.0
26/10:30am 13.4 2.7 6.5 63 3.3 W 52 61 28 33 1011.1 1011.1 0.0
26/10:00am 13.4 3.6 7.0 65 3.1 W 48 57 26 31 1011.2 1011.2 0.0
26/09:30am 13.0 4.0 7.2 68 2.8 W 44 56 24 30 1011.3 1011.3 0.0
26/09:00am 12.4 2.7 7.3 71 2.5 WSW 48 57 26 31 1011.0 1011.0 1.8
26/08:30am 12.4 3.1 7.5 72 2.4 W 46 54 25 29 1010.8 1010.8 1.8
26/08:00am 12.0 2.8 7.9 76 2.0 W 46 61 25 33 1010.6 1010.6 1.8
26/07:30am 11.7 2.3 7.0 73 2.3 W 46 56 25 30 1010.7 1010.7 1.8
26/07:00am 11.4 2.2 7.9 79 1.7 W 46 54 25 29 1010.7 1010.7 1.8
26/06:30am 11.1 2.0 8.3 83 1.4 W 46 59 25 32 1011.0 1011.0 1.6
26/06:19am 10.8 1.3 8.2 84 1.3 W 48 59 26 32 1010.3 1010.3 1.4
26/06:00am 12.3 3.9 9.7 84 1.3 WNW 44 56 24 30 1010.3 1010.3 0.4
26/05:30am 13.2 5.0 8.1 71 2.5 NW 41 48 22 26 1009.8 1009.8 0.0
26/05:26am 13.2 5.1 8.5 73 2.3 NW 41 50 22 27 1009.8 1009.8 0.0
26/05:00am 12.6 5.9 7.5 71 2.5 NNW 32 37 17 20 1009.6 1009.6 0.0
26/04:30am 12.6 5.5 7.9 73 2.3 N 35 41 19 22 1009.6 1009.6 0.0
26/04:00am 12.7 5.4 8.6 76 2.0 N 37 44 20 24 1009.6 1009.6 0.0
26/03:30am 12.9 5.6 8.8 76 2.1 N 37 46 20 25 1009.7 1009.7 0.0
26/03:00am 12.9 5.5 8.4 74 2.2 N 37 44 20 24 1009.8 1009.8 0.0
26/02:30am 13.0 5.4 8.9 76 2.1 N 39 44 21 24 1009.9 1009.9 0.0
26/02:00am 13.0 6.2 9.1 77 2.0 N 35 43 19 23 1009.8 1009.8 0.0
26/01:30am 12.9 6.6 8.8 76 2.1 NNE 32 35 17 19 1009.7 1009.7 0.0
26/01:00am 12.9 7.2 8.4 74 2.2 N 28 33 15 18 1010.0 1010.0 0.0
26/12:30am 12.9 8.4 8.6 75 2.2 N 22 28 12 15 1011.5 1011.5 0.0
26/12:00am 13.1 7.5 8.6 74 2.3 NNW 28 33 15 18 1012.3 1012.3 0.0
 
Date/Time
CST
Temp
°C
App
Temp
°C
Dew
Point
°C
Rel
Hum
%
Delta-T
°C
Wind Press
QNH
hPa
Press
MSL
hPa
Rain since
9am
mm
Dir  Spd
km/h
Gust
km/h
Spd
kts
Gust
kts
25/11:30pm 13.3 6.9 8.6 73 2.4 NW 32 37 17 20 1012.8 1012.8 0.0
25/11:00pm 13.2 7.2 8.5 73 2.3 NW 30 35 16 19 1013.1 1013.1 0.0
25/10:30pm 13.3 6.9 8.4 72 2.4 NW 32 39 17 21 1013.4 1013.4 0.0
25/10:00pm 13.2 6.1 7.9 70 2.6 NW 35 43 19 23 1013.7 1013.7 0.0
25/09:30pm 13.3 6.2 8.0 70 2.6 NW 35 43 19 23 1013.6 1013.6 0.0
25/09:00pm 13.4 5.9 7.8 69 2.8 WNW 37 44 20 24 1013.8 1013.8 0.0
25/08:30pm 13.4 6.2 7.8 69 2.8 NW 35 43 19 23 1013.6 1013.6 0.0
25/08:00pm 13.4 5.8 7.4 67 2.9 NW 37 44 20 24 1013.4 1013.4 0.0
25/07:30pm 13.5 6.8 8.1 70 2.7 NW 33 39 18 21 1013.1 1013.1 0.0
25/07:00pm 13.3 6.8 8.0 70 2.6 NW 32 37 17 20 1013.0 1013.0 0.0
25/06:30pm 13.4 6.8 8.7 73 2.4 WNW 33 39 18 21 1012.9 1012.9 0.0
25/06:00pm 13.3 7.1 8.0 70 2.6 WNW 30 39 16 21 1012.9 1012.9 0.0
25/05:30pm 13.1 6.3 7.5 69 2.7 W 33 41 18 22 1012.6 1012.6 0.0
25/05:00pm 13.1 3.9 8.2 72 2.4 WNW 46 54 25 29 1012.3 1012.3 0.0
25/04:32pm 14.0 6.4 9.2 73 2.4 WNW 39 57 21 31 1012.3 1012.3 0.0
25/04:30pm 13.7 5.7 7.5 66 3.0 WNW 39 46 21 25 1012.3 1012.3 0.0
25/04:00pm 14.8 8.5 9.0 68 3.0 WNW 32 39 17 21 1012.3 1012.3 0.0
25/03:30pm 14.5 7.8 7.3 62 3.5 WNW 32 39 17 21 1012.4 1012.4 0.0
25/03:00pm 15.1 9.0 8.1 63 3.5 WNW 30 35 16 19 1012.6 1012.6 0.0
25/02:30pm 15.1 10.6 8.6 65 3.3 WNW 22 28 12 15 1012.7 1012.7 0.0
25/02:00pm 15.0 9.6 7.8 62 3.6 WNW 26 35 14 19 1013.0 1013.0 0.0
25/01:30pm 13.9 6.5 8.5 70 2.7 WNW 37 46 20 25 1013.3 1013.3 0.0
25/01:00pm 14.9 9.4 7.7 62 3.6 NW 26 33 14 18 1013.7 1013.7 0.0
25/12:30pm 14.6 9.4 7.2 61 3.6 NW 24 33 13 18 1013.9 1013.9 0.0
25/12:00pm 14.9 10.5 6.7 58 4.0 WNW 19 24 10 13 1014.1 1014.1 0.0
25/11:30am 14.7 10.2 7.0 60 3.8 WNW 20 24 11 13 1014.4 1014.4 0.0
25/11:00am 14.4 10.2 7.5 63 3.4 NW 19 22 10 12 1014.6 1014.6 0.0
25/10:30am 14.5 10.8 7.8 64 3.3 WNW 17 20 9 11 1014.7 1014.7 0.0
25/10:00am 13.9 10.4 7.4 65 3.2 W 15 19 8 10 1014.8 1014.8 0.0
25/09:30am 13.4 9.3 8.0 70 2.7 WSW 19 22 10 12 1015.0 1015.0 0.0
25/09:00am 13.1 8.5 8.2 72 2.4 WSW 22 26 12 14 1014.8 1014.8 0.6
25/08:30am 12.4 6.7 6.7 68 2.7 WSW 26 32 14 17 1014.6 1014.6 0.6
25/08:00am 12.2 8.5 8.1 76 2.0 WSW 17 22 9 12 1014.6 1014.6 0.6
25/07:30am 11.4 5.9 7.7 78 1.8 W 26 33 14 18 1014.6 1014.6 0.6
25/07:00am 11.1 6.0 7.8 80 1.6 W 24 30 13 16 1014.4 1014.4 0.6
25/06:30am 11.1 2.2 7.0 76 2.0 W 43 48 23 26 1014.2 1014.2 0.4
25/06:29am 11.4 2.7 7.5 77 1.9 W 43 48 23 26 1014.2 1014.2 0.4
25/06:00am 11.7 3.9 6.6 71 2.4 WSW 37 43 20 23 1013.6 1013.6 0.4
25/05:45am 12.1 4.8 7.2 72 2.4 W 35 46 19 25 1013.4 1013.4 0.4
25/05:30am 12.1 5.6 6.6 69 2.6 W 30 37 16 20 1013.5 1013.5 0.4
25/05:00am 12.1 4.9 4.8 61 3.3 WSW 32 37 17 20 1013.1 1013.1 0.4
25/04:30am 11.9 4.4 4.4 60 3.4 W 33 41 18 22 1012.9 1012.9 0.4
25/04:00am 11.9 4.7 4.9 62 3.2 WSW 32 41 17 22 1012.3 1012.3 0.4
25/03:30am 12.0 4.8 5.2 63 3.1 WSW 32 39 17 21 1012.3 1012.3 0.4
25/03:00am 12.0 4.2 5.0 62 3.2 WSW 35 43 19 23 1012.2 1012.2 0.4
25/02:30am 11.9 2.5 4.2 59 3.5 WSW 43 50 23 27 1012.3 1012.3 0.4
25/02:00am 11.9 3.3 4.6 61 3.3 WSW 39 44 21 24 1012.4 1012.4 0.4
25/01:30am 12.0 3.7 6.1 67 2.8 WSW 39 46 21 25 1012.5 1012.5 0.4
25/01:00am 11.9 4.7 4.9 62 3.2 WSW 32 41 17 22 1012.5 1012.5 0.4
25/12:30am 12.1 3.8 6.2 67 2.8 WSW 39 44 21 24 1012.6 1012.6 0.4
25/12:00am 12.1 4.8 5.3 63 3.1 WSW 33 41 18 22 1012.7 1012.7 0.4
 
Date/Time
CST
Temp
°C
App
Temp
°C
Dew
Point
°C
Rel
Hum
%
Delta-T
°C
Wind Press
QNH
hPa
Press
MSL
hPa
Rain since
9am
mm
Dir  Spd
km/h
Gust
km/h
Spd
kts
Gust
kts
24/11:30pm 12.0 5.0 6.1 67 2.8 WSW 32 39 17 21 1012.7 1012.7 0.4
24/11:00pm 11.8 2.8 4.8 62 3.2 WSW 41 46 22 25 1012.6 1012.6 0.4
24/10:30pm 12.2 3.4 5.4 63 3.2 WSW 41 46 22 25 1012.6 1012.6 0.4
24/10:00pm 12.0 3.8 4.7 61 3.3 WSW 37 44 20 24 1012.6 1012.6 0.4
24/09:30pm 12.3 3.4 5.2 62 3.3 WSW 41 52 22 28 1012.6 1012.6 0.4
24/09:00pm 12.3 3.6 5.9 65 3.0 WSW 41 48 22 26 1012.3 1012.3 0.4
24/08:30pm 12.3 3.3 6.4 67 2.8 WSW 43 50 23 27 1012.2 1012.2 0.4
24/08:00pm 12.3 4.3 5.9 65 3.0 WSW 37 46 20 25 1011.8 1011.8 0.4
24/07:30pm 12.2 3.2 6.3 67 2.8 SW 43 48 23 26 1011.4 1011.4 0.4
24/07:00pm 12.5 4.0 5.0 60 3.5 WSW 39 48 21 26 1010.9 1010.9 0.4
24/06:30pm 12.6 3.9 5.8 63 3.2 WSW 41 48 22 26 1010.6 1010.6 0.4
24/06:00pm 12.7 3.8 5.1 60 3.5 WSW 41 46 22 25 1010.2 1010.2 0.4
24/05:30pm 12.9 3.7 5.6 61 3.4 WSW 43 50 23 27 1009.8 1009.8 0.4
24/05:00pm 13.2 4.0 5.6 60 3.6 WSW 43 48 23 26 1009.3 1009.3 0.4
24/04:30pm 13.8 5.5 7.6 66 3.1 SW 41 50 22 27 1008.9 1008.9 0.4
24/04:00pm 13.6 4.6 6.5 62 3.4 SW 43 50 23 27 1008.4 1008.4 0.4
24/03:30pm 13.5 5.1 7.5 67 2.9 SW 41 52 22 28 1007.9 1007.9 0.4
24/03:00pm 13.6 4.6 6.5 62 3.4 SW 43 52 23 28 1007.6 1007.6 0.4
24/02:30pm 13.9 6.0 7.7 66 3.1 SW 39 46 21 25 1007.4 1007.4 0.4
24/02:00pm 14.3 6.2 8.7 69 2.8 SW 41 48 22 26 1007.1 1007.1 0.4
24/01:30pm 13.8 5.6 8.2 69 2.8 SW 41 50 22 27 1006.9 1006.9 0.4
24/01:00pm 13.6 6.4 9.1 74 2.3 SW 37 44 20 24 1006.8 1006.8 0.4
24/12:30pm 13.7 8.4 11.2 85 1.3 SW 30 39 16 21 1006.9 1006.9 0.4
24/12:00pm 12.5 6.5 10.2 86 1.2 SW 32 39 17 21 1007.0 1007.0 0.2
24/11:30am 13.8 7.6 9.5 75 2.2 SW 32 39 17 21 1006.8 1006.8 0.0
24/11:00am 13.8 6.4 10.0 78 2.0 SW 39 44 21 24 1006.7 1006.7 0.0
24/10:30am 14.6 9.1 9.2 70 2.8 WSW 28 37 15 20 1006.4 1006.4 0.0
24/10:00am 14.6 9.2 9.4 71 2.7 SW 28 33 15 18 1006.4 1006.4 0.0
24/09:30am 14.3 10.0 9.3 72 2.6 SW 22 28 12 15 1006.2 1006.2 0.0
24/09:00am 13.7 8.2 9.0 73 2.4 SW 28 33 15 18 1005.9 1005.9 0.0
24/08:30am 13.3 6.1 9.0 75 2.2 SW 37 44 20 24 1005.6 1005.6 0.0
24/08:00am 13.2 4.2 8.9 75 2.2 SW 46 56 25 30 1005.0 1005.0 0.0

Other Formats:

Comma delimited format used in spreadsheet applications
http://www.bom.gov.au/fwo/IDS60801/IDS60801.94804.axf

JavaScript Object Notation format (JSON) in row-major order
http://www.bom.gov.au/fwo/IDS60801/IDS60801.94804.json